Página principal
METAR-TAF:

METAR-TAF

Aeroportos :

Ouagadougou, Burkina Faso

latitude: 12-21N, longitude: 001-31W, altura: 316 m

Observação actual do tempo

O boletim foi feito há 1 hora e 18 minutos, às 12:00 UTC
Vento 5 kt de su-sudeste, variando entre sudeste e sudoeste
Temperatura 32°C
Humidade 49%
Pressão 1013 hPa
Visibilidade 10 km ou mais
sem nuvens abaixo de 1500 metros e sem cumulonimbus

METAR: DFFD 171200Z 16005KT 130V220 CAVOK 32/20 Q1013 NOSIG

Hora: 13:18 (13:18 UTC)

Previsão

O boletim foi feito há 2 horas e 18 minutos, às 11:00 UTC
Previsão válida de 17 às 12 UTC a 18 às 18 UTC
Vento 8 kt com direcção variável
Visibilidade 10 km ou mais
Poucas nuvensa uma altura de 2600 ft
Temporariamente
de 17 às 15 UTC a 17 às 24 UTC
Visibilidade: 4000 m
Nuvens dispersasa uma altura de 2600 ft
Poucas nuvensa uma altura de 3600 ft, Cumulonimbus.
trovoada, chuva

TAF: DFFD 171100Z 1712/1818 VRB08KT 9999 FEW026 TEMPO 1715/1724 4000 TSRA SCT026 FEW036CB

Observações e previsões do tempo de mais de 4000 aeroportos (mensagens METAR e TAF).

As estações disponíveis são os pontos amarelos e vermelhos sobre o mapa.

Mova o rato sobre o mapa para ver o nome da estação.

Depois clique no ponto para visualizar as observações e previsões meteorológicas.

Para alterar o mapa : clique nos botões verdes com uma cruz preta para aumentar o zoom; no botão verde com uma pitada de zoom; ou nas setas verdes para mapas adjacentes.


METAR-TAF: